sensor_id;sensor_type;location;lat;lon;timestamp;pressure;altitude;pressure_sealevel;temperature;humidity
37832;BME280;23671;38.090;-122.570;2023-03-17T00:00:36;101629.13;;;19.39;60.33
37832;BME280;23671;38.090;-122.570;2023-03-17T00:03:04;101627.28;;;19.39;60.49
37832;BME280;23671;38.090;-122.570;2023-03-17T00:05:34;101630.13;;;19.38;60.23
37832;BME280;23671;38.090;-122.570;2023-03-17T00:08:15;101626.75;;;19.36;60.31
37832;BME280;23671;38.090;-122.570;2023-03-17T00:10:44;101633.25;;;19.33;60.42
37832;BME280;23671;38.090;-122.570;2023-03-17T00:13:12;101622.97;;;19.29;60.61
37832;BME280;23671;38.090;-122.570;2023-03-17T00:15:42;101639.03;;;19.29;60.31
37832;BME280;23671;38.090;-122.570;2023-03-17T00:18:13;101639.19;;;19.27;60.43
37832;BME280;23671;38.090;-122.570;2023-03-17T00:20:40;101632.31;;;19.25;60.52
37832;BME280;23671;38.090;-122.570;2023-03-17T00:23:19;101640.50;;;19.23;60.66
37832;BME280;23671;38.090;-122.570;2023-03-17T00:25:48;101636.28;;;19.21;60.52
37832;BME280;23671;38.090;-122.570;2023-03-17T00:30:45;101637.28;;;19.20;60.43
37832;BME280;23671;38.090;-122.570;2023-03-17T00:33:15;101646.47;;;19.17;60.20
37832;BME280;23671;38.090;-122.570;2023-03-17T00:35:43;101636.25;;;19.13;60.17
37832;BME280;23671;38.090;-122.570;2023-03-17T00:38:16;101636.38;;;19.11;60.37
37832;BME280;23671;38.090;-122.570;2023-03-17T00:40:44;101642.03;;;19.08;60.32
37832;BME280;23671;38.090;-122.570;2023-03-17T00:43:12;101634.47;;;19.03;60.29
37832;BME280;23671;38.090;-122.570;2023-03-17T00:45:40;101646.63;;;18.98;60.31
37832;BME280;23671;38.090;-122.570;2023-03-17T00:48:20;101643.78;;;18.99;60.42
37832;BME280;23671;38.090;-122.570;2023-03-17T00:50:49;101645.13;;;18.95;60.28
37832;BME280;23671;38.090;-122.570;2023-03-17T00:53:18;101642.72;;;18.92;60.43
37832;BME280;23671;38.090;-122.570;2023-03-17T00:55:47;101641.19;;;18.90;60.26
37832;BME280;23671;38.090;-122.570;2023-03-17T00:58:23;101642.50;;;18.86;60.00
37832;BME280;23671;38.090;-122.570;2023-03-17T01:00:51;101647.31;;;18.82;60.11
37832;BME280;23671;38.090;-122.570;2023-03-17T01:03:19;101643.94;;;18.80;60.11
37832;BME280;23671;38.090;-122.570;2023-03-17T01:05:48;101646.94;;;18.77;60.09
37832;BME280;23671;38.090;-122.570;2023-03-17T01:08:16;101655.41;;;18.73;60.13
37832;BME280;23671;38.090;-122.570;2023-03-17T01:10:43;101661.91;;;18.70;59.66
37832;BME280;23671;38.090;-122.570;2023-03-17T01:13:12;101651.94;;;18.63;59.83
37832;BME280;23671;38.090;-122.570;2023-03-17T01:15:45;101650.28;;;18.62;59.89
37832;BME280;23671;38.090;-122.570;2023-03-17T01:18:14;101652.69;;;18.55;59.26
37832;BME280;23671;38.090;-122.570;2023-03-17T01:20:41;101659.50;;;18.50;59.28
37832;BME280;23671;38.090;-122.570;2023-03-17T01:23:09;101664.84;;;18.50;59.15
37832;BME280;23671;38.090;-122.570;2023-03-17T01:25:38;101665.00;;;18.48;59.25
37832;BME280;23671;38.090;-122.570;2023-03-17T01:28:16;101666.44;;;18.43;59.27
37832;BME280;23671;38.090;-122.570;2023-03-17T01:30:44;101660.09;;;18.34;59.24
37832;BME280;23671;38.090;-122.570;2023-03-17T01:33:13;101661.38;;;18.30;58.92
37832;BME280;23671;38.090;-122.570;2023-03-17T01:35:41;101663.97;;;18.22;59.22
37832;BME280;23671;38.090;-122.570;2023-03-17T01:38:09;101665.09;;;18.20;59.41
37832;BME280;23671;38.090;-122.570;2023-03-17T01:40:49;101671.88;;;18.14;59.49
37832;BME280;23671;38.090;-122.570;2023-03-17T01:43:20;101672.03;;;18.12;59.18
37832;BME280;23671;38.090;-122.570;2023-03-17T01:46:17;101665.72;;;18.04;59.53
37832;BME280;23671;38.090;-122.570;2023-03-17T01:52:02;101669.28;;;17.95;59.85
37832;BME280;23671;38.090;-122.570;2023-03-17T01:57:08;101668.47;;;17.85;60.06
37832;BME280;23671;38.090;-122.570;2023-03-17T01:59:41;101671.72;;;17.79;60.51
37832;BME280;23671;38.090;-122.570;2023-03-17T02:02:11;101670.31;;;17.75;60.94
37832;BME280;23671;38.090;-122.570;2023-03-17T02:04:41;101672.59;;;17.70;61.62
37832;BME280;23671;38.090;-122.570;2023-03-17T02:07:09;101669.09;;;17.60;60.25
37832;BME280;23671;38.090;-122.570;2023-03-17T02:09:37;101673.44;;;17.61;60.12
37832;BME280;23671;38.090;-122.570;2023-03-17T02:12:04;101673.44;;;17.61;59.89
37832;BME280;23671;38.090;-122.570;2023-03-17T02:14:32;101672.47;;;17.52;60.04
37832;BME280;23671;38.090;-122.570;2023-03-17T02:16:59;101673.16;;;17.45;60.91
37832;BME280;23671;38.090;-122.570;2023-03-17T02:19:28;101672.44;;;17.43;61.20
37832;BME280;23671;38.090;-122.570;2023-03-17T02:21:57;101674.69;;;17.38;61.46
37832;BME280;23671;38.090;-122.570;2023-03-17T02:24:41;101671.31;;;17.26;61.34
37832;BME280;23671;38.090;-122.570;2023-03-17T02:27:32;101665.56;;;17.21;61.92
37832;BME280;23671;38.090;-122.570;2023-03-17T02:30:00;101668.66;;;17.16;61.43
37832;BME280;23671;38.090;-122.570;2023-03-17T02:32:27;101672.72;;;17.11;61.44
37832;BME280;23671;38.090;-122.570;2023-03-17T02:34:54;101665.16;;;17.06;61.16
37832;BME280;23671;38.090;-122.570;2023-03-17T02:37:21;101665.13;;;16.97;61.29
37832;BME280;23671;38.090;-122.570;2023-03-17T02:39:49;101657.81;;;16.89;61.37
37832;BME280;23671;38.090;-122.570;2023-03-17T02:42:16;101663.59;;;16.85;61.54
37832;BME280;23671;38.090;-122.570;2023-03-17T02:44:43;101669.63;;;16.77;60.73
37832;BME280;23671;38.090;-122.570;2023-03-17T02:47:11;101665.41;;;16.75;61.66
37832;BME280;23671;38.090;-122.570;2023-03-17T02:49:39;101668.75;;;16.67;60.14
37832;BME280;23671;38.090;-122.570;2023-03-17T02:52:07;101670.00;;;16.63;60.08
37832;BME280;23671;38.090;-122.570;2023-03-17T02:54:34;101662.53;;;16.57;60.26
37832;BME280;23671;38.090;-122.570;2023-03-17T02:57:02;101661.56;;;16.49;60.31
37832;BME280;23671;38.090;-122.570;2023-03-17T02:59:29;101659.13;;;16.46;60.13
37832;BME280;23671;38.090;-122.570;2023-03-17T03:01:57;101667.50;;;16.41;60.32
37832;BME280;23671;38.090;-122.570;2023-03-17T03:04:24;101663.84;;;16.32;59.94
37832;BME280;23671;38.090;-122.570;2023-03-17T03:06:52;101672.94;;;16.30;60.13
37832;BME280;23671;38.090;-122.570;2023-03-17T03:09:19;101672.53;;;16.25;60.12
37832;BME280;23671;38.090;-122.570;2023-03-17T03:11:47;101667.72;;;16.19;60.81
37832;BME280;23671;38.090;-122.570;2023-03-17T03:14:14;101663.63;;;16.15;60.75
37832;BME280;23671;38.090;-122.570;2023-03-17T03:16:41;101670.91;;;16.13;60.55
37832;BME280;23671;38.090;-122.570;2023-03-17T03:19:09;101673.00;;;16.09;60.34
37832;BME280;23671;38.090;-122.570;2023-03-17T03:21:36;101677.63;;;16.07;60.68
37832;BME280;23671;38.090;-122.570;2023-03-17T03:24:04;101683.50;;;16.01;60.20
37832;BME280;23671;38.090;-122.570;2023-03-17T03:26:32;101691.88;;;15.97;60.59
37832;BME280;23671;38.090;-122.570;2023-03-17T03:28:59;101691.44;;;15.92;59.39
37832;BME280;23671;38.090;-122.570;2023-03-17T03:31:26;101693.50;;;15.88;60.42
37832;BME280;23671;38.090;-122.570;2023-03-17T03:33:53;101696.56;;;15.84;59.52
37832;BME280;23671;38.090;-122.570;2023-03-17T03:36:21;101699.50;;;15.81;59.35
37832;BME280;23671;38.090;-122.570;2023-03-17T03:38:48;101702.69;;;15.75;59.21
37832;BME280;23671;38.090;-122.570;2023-03-17T03:41:15;101700.41;;;15.70;59.51
37832;BME280;23671;38.090;-122.570;2023-03-17T03:43:43;101703.47;;;15.66;58.65
37832;BME280;23671;38.090;-122.570;2023-03-17T03:46:10;101711.13;;;15.59;58.46
37832;BME280;23671;38.090;-122.570;2023-03-17T03:48:37;101717.94;;;15.52;58.58
37832;BME280;23671;38.090;-122.570;2023-03-17T03:51:04;101718.31;;;15.48;59.19
37832;BME280;23671;38.090;-122.570;2023-03-17T03:53:31;101721.72;;;15.38;58.47
37832;BME280;23671;38.090;-122.570;2023-03-17T03:55:59;101729.81;;;15.37;58.52
37832;BME280;23671;38.090;-122.570;2023-03-17T03:58:26;101726.69;;;15.32;58.42
37832;BME280;23671;38.090;-122.570;2023-03-17T04:00:53;101729.00;;;15.25;58.30
37832;BME280;23671;38.090;-122.570;2023-03-17T04:03:20;101736.41;;;15.22;58.63
37832;BME280;23671;38.090;-122.570;2023-03-17T04:05:47;101736.19;;;15.14;58.58
37832;BME280;23671;38.090;-122.570;2023-03-17T04:08:14;101743.00;;;15.07;59.03
37832;BME280;23671;38.090;-122.570;2023-03-17T04:10:42;101744.69;;;15.08;58.68
37832;BME280;23671;38.090;-122.570;2023-03-17T04:13:09;101740.69;;;15.02;58.44
37832;BME280;23671;38.090;-122.570;2023-03-17T04:15:36;101737.72;;;14.96;58.12
37832;BME280;23671;38.090;-122.570;2023-03-17T04:18:03;101737.59;;;14.86;58.15
37832;BME280;23671;38.090;-122.570;2023-03-17T04:20:30;101745.09;;;14.81;58.25
37832;BME280;23671;38.090;-122.570;2023-03-17T04:22:58;101754.41;;;14.76;58.63
37832;BME280;23671;38.090;-122.570;2023-03-17T04:25:25;101754.28;;;14.77;58.55
37832;BME280;23671;38.090;-122.570;2023-03-17T04:27:52;101758.53;;;14.69;58.39
37832;BME280;23671;38.090;-122.570;2023-03-17T04:30:19;101770.38;;;14.65;58.94
37832;BME280;23671;38.090;-122.570;2023-03-17T04:32:46;101764.59;;;14.60;58.57
37832;BME280;23671;38.090;-122.570;2023-03-17T04:35:18;101760.25;;;14.47;58.69
37832;BME280;23671;38.090;-122.570;2023-03-17T04:37:47;101760.59;;;14.43;58.81
37832;BME280;23671;38.090;-122.570;2023-03-17T04:40:16;101770.00;;;14.36;58.76
37832;BME280;23671;38.090;-122.570;2023-03-17T04:42:44;101768.91;;;14.27;59.07
37832;BME280;23671;38.090;-122.570;2023-03-17T04:45:13;101774.91;;;14.18;59.04
37832;BME280;23671;38.090;-122.570;2023-03-17T04:47:43;101775.50;;;14.11;59.31
37832;BME280;23671;38.090;-122.570;2023-03-17T04:50:11;101783.94;;;14.05;59.41
37832;BME280;23671;38.090;-122.570;2023-03-17T04:52:39;101778.16;;;14.00;59.34
37832;BME280;23671;38.090;-122.570;2023-03-17T04:55:07;101776.69;;;13.96;59.14
37832;BME280;23671;38.090;-122.570;2023-03-17T04:57:35;101776.53;;;13.86;59.36
37832;BME280;23671;38.090;-122.570;2023-03-17T05:00:03;101779.41;;;13.83;59.51
37832;BME280;23671;38.090;-122.570;2023-03-17T05:02:30;101782.44;;;13.79;59.79
37832;BME280;23671;38.090;-122.570;2023-03-17T05:04:57;101793.59;;;13.71;59.89
37832;BME280;23671;38.090;-122.570;2023-03-17T05:07:24;101796.75;;;13.65;59.40
37832;BME280;23671;38.090;-122.570;2023-03-17T05:09:51;101791.19;;;13.68;59.30
37832;BME280;23671;38.090;-122.570;2023-03-17T05:12:18;101791.91;;;13.70;59.27
37832;BME280;23671;38.090;-122.570;2023-03-17T05:14:45;101786.72;;;13.68;58.91
37832;BME280;23671;38.090;-122.570;2023-03-17T05:17:13;101782.16;;;13.71;58.85
37832;BME280;23671;38.090;-122.570;2023-03-17T05:19:40;101786.72;;;13.68;59.01
37832;BME280;23671;38.090;-122.570;2023-03-17T05:22:07;101791.88;;;13.59;59.38
37832;BME280;23671;38.090;-122.570;2023-03-17T05:24:35;101783.53;;;13.52;59.18
37832;BME280;23671;38.090;-122.570;2023-03-17T05:27:02;101788.34;;;13.47;59.18
37832;BME280;23671;38.090;-122.570;2023-03-17T05:29:29;101790.91;;;13.36;59.99
37832;BME280;23671;38.090;-122.570;2023-03-17T05:31:56;101784.69;;;13.25;60.19
37832;BME280;23671;38.090;-122.570;2023-03-17T05:34:23;101777.22;;;13.19;59.83
37832;BME280;23671;38.090;-122.570;2023-03-17T05:36:50;101775.09;;;13.11;60.26
37832;BME280;23671;38.090;-122.570;2023-03-17T05:39:17;101773.66;;;13.07;60.69
37832;BME280;23671;38.090;-122.570;2023-03-17T05:41:44;101774.16;;;13.00;60.01
37832;BME280;23671;38.090;-122.570;2023-03-17T05:44:11;101779.56;;;12.98;60.36
37832;BME280;23671;38.090;-122.570;2023-03-17T05:46:38;101774.94;;;12.89;60.59
37832;BME280;23671;38.090;-122.570;2023-03-17T05:49:05;101787.34;;;12.89;60.99
37832;BME280;23671;38.090;-122.570;2023-03-17T05:51:32;101784.19;;;12.84;60.70
37832;BME280;23671;38.090;-122.570;2023-03-17T05:53:59;101779.09;;;12.80;60.84
37832;BME280;23671;38.090;-122.570;2023-03-17T05:56:26;101772.31;;;12.76;60.70
37832;BME280;23671;38.090;-122.570;2023-03-17T05:59:00;101775.31;;;12.72;60.92
37832;BME280;23671;38.090;-122.570;2023-03-17T06:01:27;101783.56;;;12.67;61.05
37832;BME280;23671;38.090;-122.570;2023-03-17T06:03:55;101785.59;;;12.64;60.78
37832;BME280;23671;38.090;-122.570;2023-03-17T06:06:22;101781.97;;;12.65;60.49
37832;BME280;23671;38.090;-122.570;2023-03-17T06:08:50;101781.47;;;12.60;60.69
37832;BME280;23671;38.090;-122.570;2023-03-17T06:11:17;101777.44;;;12.54;61.06
37832;BME280;23671;38.090;-122.570;2023-03-17T06:13:46;101781.16;;;12.52;61.32
37832;BME280;23671;38.090;-122.570;2023-03-17T06:16:13;101775.47;;;12.45;60.63
37832;BME280;23671;38.090;-122.570;2023-03-17T06:18:41;101779.91;;;12.45;60.97
37832;BME280;23671;38.090;-122.570;2023-03-17T06:21:08;101772.50;;;12.37;60.98
37832;BME280;23671;38.090;-122.570;2023-03-17T06:23:35;101782.47;;;12.34;61.10
37832;BME280;23671;38.090;-122.570;2023-03-17T06:26:02;101781.91;;;12.29;61.26
37832;BME280;23671;38.090;-122.570;2023-03-17T06:28:30;101783.81;;;12.27;60.83
37832;BME280;23671;38.090;-122.570;2023-03-17T06:30:57;101786.06;;;12.20;61.49
37832;BME280;23671;38.090;-122.570;2023-03-17T06:33:25;101776.63;;;12.16;60.77
37832;BME280;23671;38.090;-122.570;2023-03-17T06:35:52;101780.31;;;12.14;60.98
37832;BME280;23671;38.090;-122.570;2023-03-17T06:38:19;101776.31;;;12.08;60.90
37832;BME280;23671;38.090;-122.570;2023-03-17T06:40:46;101775.66;;;12.05;61.20
37832;BME280;23671;38.090;-122.570;2023-03-17T06:43:13;101787.41;;;12.01;61.16
37832;BME280;23671;38.090;-122.570;2023-03-17T06:45:40;101777.97;;;11.97;61.04
37832;BME280;23671;38.090;-122.570;2023-03-17T06:48:07;101777.25;;;11.95;61.32
37832;BME280;23671;38.090;-122.570;2023-03-17T06:50:34;101782.75;;;11.92;60.84
37832;BME280;23671;38.090;-122.570;2023-03-17T06:53:01;101785.81;;;11.85;61.11
37832;BME280;23671;38.090;-122.570;2023-03-17T06:55:29;101787.78;;;11.82;61.26
37832;BME280;23671;38.090;-122.570;2023-03-17T06:57:57;101788.88;;;11.79;61.43
37832;BME280;23671;38.090;-122.570;2023-03-17T07:00:24;101794.44;;;11.75;61.32
37832;BME280;23671;38.090;-122.570;2023-03-17T07:02:52;101798.47;;;11.68;61.44
37832;BME280;23671;38.090;-122.570;2023-03-17T07:05:19;101795.97;;;11.65;61.56
37832;BME280;23671;38.090;-122.570;2023-03-17T07:07:47;101804.97;;;11.62;61.70
37832;BME280;23671;38.090;-122.570;2023-03-17T07:10:15;101809.72;;;11.57;61.64
37832;BME280;23671;38.090;-122.570;2023-03-17T07:12:43;101799.44;;;11.53;61.05
37832;BME280;23671;38.090;-122.570;2023-03-17T07:15:10;101807.47;;;11.51;61.74
37832;BME280;23671;38.090;-122.570;2023-03-17T07:17:38;101799.84;;;11.47;61.59
37832;BME280;23671;38.090;-122.570;2023-03-17T07:20:05;101800.16;;;11.42;61.66
37832;BME280;23671;38.090;-122.570;2023-03-17T07:22:32;101803.94;;;11.38;61.37
37832;BME280;23671;38.090;-122.570;2023-03-17T07:24:59;101798.84;;;11.35;61.74
37832;BME280;23671;38.090;-122.570;2023-03-17T07:27:26;101793.84;;;11.31;61.26
37832;BME280;23671;38.090;-122.570;2023-03-17T07:29:53;101789.81;;;11.25;61.83
37832;BME280;23671;38.090;-122.570;2023-03-17T07:32:20;101780.50;;;11.20;61.81
37832;BME280;23671;38.090;-122.570;2023-03-17T07:34:48;101775.38;;;11.17;62.01
37832;BME280;23671;38.090;-122.570;2023-03-17T07:37:15;101786.19;;;11.14;62.04
37832;BME280;23671;38.090;-122.570;2023-03-17T07:39:43;101790.81;;;11.10;61.82
37832;BME280;23671;38.090;-122.570;2023-03-17T07:42:13;101795.53;;;11.05;61.73
37832;BME280;23671;38.090;-122.570;2023-03-17T07:44:41;101792.25;;;11.02;61.81
37832;BME280;23671;38.090;-122.570;2023-03-17T07:47:09;101795.94;;;10.99;61.72
37832;BME280;23671;38.090;-122.570;2023-03-17T07:49:37;101801.41;;;10.96;61.79
37832;BME280;23671;38.090;-122.570;2023-03-17T07:52:04;101803.41;;;10.92;61.78
37832;BME280;23671;38.090;-122.570;2023-03-17T07:54:32;101802.75;;;10.89;61.87
37832;BME280;23671;38.090;-122.570;2023-03-17T07:56:59;101799.34;;;10.87;62.00
37832;BME280;23671;38.090;-122.570;2023-03-17T07:59:26;101794.25;;;10.84;61.84
37832;BME280;23671;38.090;-122.570;2023-03-17T08:01:53;101796.13;;;10.82;61.70
37832;BME280;23671;38.090;-122.570;2023-03-17T08:04:20;101802.56;;;10.78;62.02
37832;BME280;23671;38.090;-122.570;2023-03-17T08:06:47;101804.47;;;10.76;62.01
37832;BME280;23671;38.090;-122.570;2023-03-17T08:09:14;101794.19;;;10.71;61.92
37832;BME280;23671;38.090;-122.570;2023-03-17T08:11:41;101798.72;;;10.69;62.04
37832;BME280;23671;38.090;-122.570;2023-03-17T08:14:08;101787.50;;;10.66;62.03
37832;BME280;23671;38.090;-122.570;2023-03-17T08:16:37;101799.75;;;10.67;61.79
37832;BME280;23671;38.090;-122.570;2023-03-17T08:19:04;101794.47;;;10.67;61.62
37832;BME280;23671;38.090;-122.570;2023-03-17T08:21:32;101800.03;;;10.62;61.49
37832;BME280;23671;38.090;-122.570;2023-03-17T08:23:59;101798.53;;;10.58;61.71
37832;BME280;23671;38.090;-122.570;2023-03-17T08:26:27;101802.22;;;10.56;61.80
37832;BME280;23671;38.090;-122.570;2023-03-17T08:28:54;101801.25;;;10.57;61.56
37832;BME280;23671;38.090;-122.570;2023-03-17T08:31:22;101805.06;;;10.53;61.72
37832;BME280;23671;38.090;-122.570;2023-03-17T08:33:51;101809.66;;;10.49;61.75
37832;BME280;23671;38.090;-122.570;2023-03-17T08:36:20;101809.94;;;10.45;61.49
37832;BME280;23671;38.090;-122.570;2023-03-17T08:38:47;101817.22;;;10.41;61.57
37832;BME280;23671;38.090;-122.570;2023-03-17T08:41:19;101823.31;;;10.42;61.61
37832;BME280;23671;38.090;-122.570;2023-03-17T08:43:47;101823.41;;;10.40;61.74
37832;BME280;23671;38.090;-122.570;2023-03-17T08:46:18;101817.47;;;10.37;61.77
37832;BME280;23671;38.090;-122.570;2023-03-17T08:48:47;101825.41;;;10.37;61.37
37832;BME280;23671;38.090;-122.570;2023-03-17T08:51:15;101813.13;;;10.36;61.46
37832;BME280;23671;38.090;-122.570;2023-03-17T08:53:42;101817.75;;;10.32;61.49
37832;BME280;23671;38.090;-122.570;2023-03-17T08:56:10;101817.09;;;10.29;61.53
37832;BME280;23671;38.090;-122.570;2023-03-17T08:58:38;101803.34;;;10.24;61.42
37832;BME280;23671;38.090;-122.570;2023-03-17T09:01:07;101813.78;;;10.25;61.39
37832;BME280;23671;38.090;-122.570;2023-03-17T09:03:37;101813.41;;;10.17;61.31
37832;BME280;23671;38.090;-122.570;2023-03-17T09:06:06;101814.91;;;10.21;61.59
37832;BME280;23671;38.090;-122.570;2023-03-17T09:08:34;101817.72;;;10.18;61.58
37832;BME280;23671;38.090;-122.570;2023-03-17T09:11:05;101815.06;;;10.18;61.16
37832;BME280;23671;38.090;-122.570;2023-03-17T09:13:33;101813.50;;;10.16;61.12
37832;BME280;23671;38.090;-122.570;2023-03-17T09:16:03;101809.44;;;10.10;61.42
37832;BME280;23671;38.090;-122.570;2023-03-17T09:18:30;101811.28;;;10.08;61.43
37832;BME280;23671;38.090;-122.570;2023-03-17T09:20:59;101815.69;;;10.07;61.36
37832;BME280;23671;38.090;-122.570;2023-03-17T09:23:28;101826.25;;;10.07;60.95
37832;BME280;23671;38.090;-122.570;2023-03-17T09:25:55;101822.97;;;10.04;61.11
37832;BME280;23671;38.090;-122.570;2023-03-17T09:28:23;101823.13;;;10.01;61.37
37832;BME280;23671;38.090;-122.570;2023-03-17T09:30:50;101817.78;;;10.02;61.08
37832;BME280;23671;38.090;-122.570;2023-03-17T09:33:18;101823.22;;;9.99;61.20
37832;BME280;23671;38.090;-122.570;2023-03-17T09:35:45;101824.53;;;9.92;61.31
37832;BME280;23671;38.090;-122.570;2023-03-17T09:38:13;101829.81;;;9.92;61.46
37832;BME280;23671;38.090;-122.570;2023-03-17T09:49:59;101831.94;;;9.86;60.56
37832;BME280;23671;38.090;-122.570;2023-03-17T09:52:31;101837.31;;;9.84;61.18
37832;BME280;23671;38.090;-122.570;2023-03-17T09:55:05;101834.88;;;9.81;61.01
37832;BME280;23671;38.090;-122.570;2023-03-17T09:57:38;101829.66;;;9.80;61.19
37832;BME280;23671;38.090;-122.570;2023-03-17T10:00:16;101841.06;;;9.80;61.08
37832;BME280;23671;38.090;-122.570;2023-03-17T10:02:45;101828.13;;;9.76;60.66
37832;BME280;23671;38.090;-122.570;2023-03-17T10:05:28;101830.88;;;9.74;60.99
37832;BME280;23671;38.090;-122.570;2023-03-17T10:11:47;101825.94;;;9.68;60.77
37832;BME280;23671;38.090;-122.570;2023-03-17T10:14:32;101825.19;;;9.66;60.51
37832;BME280;23671;38.090;-122.570;2023-03-17T10:17:19;101823.75;;;9.61;60.96
37832;BME280;23671;38.090;-122.570;2023-03-17T10:20:10;101826.47;;;9.59;60.73
37832;BME280;23671;38.090;-122.570;2023-03-17T10:25:23;101824.09;;;9.55;60.82
37832;BME280;23671;38.090;-122.570;2023-03-17T10:30:25;101814.75;;;9.49;61.06
37832;BME280;23671;38.090;-122.570;2023-03-17T10:32:57;101822.56;;;9.51;60.93
37832;BME280;23671;38.090;-122.570;2023-03-17T10:35:26;101815.63;;;9.50;60.92
37832;BME280;23671;38.090;-122.570;2023-03-17T10:37:53;101822.66;;;9.49;60.73
37832;BME280;23671;38.090;-122.570;2023-03-17T10:40:25;101818.50;;;9.45;60.74
37832;BME280;23671;38.090;-122.570;2023-03-17T10:43:05;101815.09;;;9.43;60.70
37832;BME280;23671;38.090;-122.570;2023-03-17T10:45:37;101815.44;;;9.37;60.47
37832;BME280;23671;38.090;-122.570;2023-03-17T10:48:15;101822.53;;;9.37;60.49
37832;BME280;23671;38.090;-122.570;2023-03-17T10:50:43;101824.31;;;9.36;60.62
37832;BME280;23671;38.090;-122.570;2023-03-17T10:55:51;101808.81;;;9.30;60.64
37832;BME280;23671;38.090;-122.570;2023-03-17T10:58:45;101814.19;;;9.29;60.65
37832;BME280;23671;38.090;-122.570;2023-03-17T11:01:33;101806.53;;;9.24;60.29
37832;BME280;23671;38.090;-122.570;2023-03-17T11:04:01;101811.13;;;9.21;61.00
37832;BME280;23671;38.090;-122.570;2023-03-17T11:06:37;101810.47;;;9.17;60.85
37832;BME280;23671;38.090;-122.570;2023-03-17T11:09:16;101799.06;;;9.16;60.80
37832;BME280;23671;38.090;-122.570;2023-03-17T11:11:47;101796.63;;;9.13;60.65
37832;BME280;23671;38.090;-122.570;2023-03-17T11:14:17;101790.47;;;9.13;60.56
37832;BME280;23671;38.090;-122.570;2023-03-17T11:17:05;101793.31;;;9.10;60.47
37832;BME280;23671;38.090;-122.570;2023-03-17T11:22:43;101804.09;;;9.05;60.87
37832;BME280;23671;38.090;-122.570;2023-03-17T11:25:18;101805.97;;;9.03;60.58
37832;BME280;23671;38.090;-122.570;2023-03-17T11:28:37;101802.56;;;9.01;60.47
37832;BME280;23671;38.090;-122.570;2023-03-17T11:33:32;101813.41;;;8.95;61.10
37832;BME280;23671;38.090;-122.570;2023-03-17T11:36:19;101814.38;;;8.94;60.45
37832;BME280;23671;38.090;-122.570;2023-03-17T11:53:09;101786.31;;;8.78;61.22
37832;BME280;23671;38.090;-122.570;2023-03-17T11:55:46;101771.47;;;8.77;60.56
37832;BME280;23671;38.090;-122.570;2023-03-17T11:58:26;101760.06;;;8.76;60.95
37832;BME280;23671;38.090;-122.570;2023-03-17T12:00:57;101766.34;;;8.74;61.20
37832;BME280;23671;38.090;-122.570;2023-03-17T12:06:16;101804.47;;;8.67;61.22
37832;BME280;23671;38.090;-122.570;2023-03-17T12:08:57;101814.25;;;8.65;60.72
37832;BME280;23671;38.090;-122.570;2023-03-17T12:11:28;101807.44;;;8.61;61.53
37832;BME280;23671;38.090;-122.570;2023-03-17T12:14:06;101808.38;;;8.60;61.37
37832;BME280;23671;38.090;-122.570;2023-03-17T12:17:17;101796.22;;;8.57;61.07
37832;BME280;23671;38.090;-122.570;2023-03-17T12:20:11;101790.19;;;8.55;61.27
37832;BME280;23671;38.090;-122.570;2023-03-17T12:22:46;101789.34;;;8.55;60.99
37832;BME280;23671;38.090;-122.570;2023-03-17T12:25:31;101785.09;;;8.52;61.19
37832;BME280;23671;38.090;-122.570;2023-03-17T12:30:33;101774.72;;;8.49;61.36
37832;BME280;23671;38.090;-122.570;2023-03-17T12:33:13;101775.72;;;8.47;61.27
37832;BME280;23671;38.090;-122.570;2023-03-17T12:35:42;101774.97;;;8.45;60.92
37832;BME280;23671;38.090;-122.570;2023-03-17T12:38:41;101779.44;;;8.43;61.17
37832;BME280;23671;38.090;-122.570;2023-03-17T12:41:37;101769.88;;;8.42;61.21
37832;BME280;23671;38.090;-122.570;2023-03-17T12:47:27;101793.88;;;8.36;61.37
37832;BME280;23671;38.090;-122.570;2023-03-17T12:55:32;101817.78;;;8.31;61.70
37832;BME280;23671;38.090;-122.570;2023-03-17T12:58:24;101821.38;;;8.30;61.58
37832;BME280;23671;38.090;-122.570;2023-03-17T13:00:59;101808.44;;;8.25;61.14
37832;BME280;23671;38.090;-122.570;2023-03-17T13:03:34;101808.50;;;8.24;61.07
37832;BME280;23671;38.090;-122.570;2023-03-17T13:06:06;101824.44;;;8.21;60.97
37832;BME280;23671;38.090;-122.570;2023-03-17T13:08:42;101833.25;;;8.20;61.37
37832;BME280;23671;38.090;-122.570;2023-03-17T13:11:26;101828.00;;;8.20;61.55
37832;BME280;23671;38.090;-122.570;2023-03-17T13:16:45;101819.63;;;8.12;61.10
37832;BME280;23671;38.090;-122.570;2023-03-17T13:19:18;101817.00;;;8.12;61.55
37832;BME280;23671;38.090;-122.570;2023-03-17T13:24:41;101846.97;;;8.09;61.45
37832;BME280;23671;38.090;-122.570;2023-03-17T13:27:12;101860.19;;;8.08;61.21
37832;BME280;23671;38.090;-122.570;2023-03-17T13:29:42;101865.59;;;8.05;61.56
37832;BME280;23671;38.090;-122.570;2023-03-17T13:34:53;101863.13;;;8.02;61.78
37832;BME280;23671;38.090;-122.570;2023-03-17T13:37:45;101853.63;;;7.99;61.53
37832;BME280;23671;38.090;-122.570;2023-03-17T13:43:09;101846.72;;;7.97;61.58
37832;BME280;23671;38.090;-122.570;2023-03-17T13:45:43;101843.31;;;7.95;61.48
37832;BME280;23671;38.090;-122.570;2023-03-17T13:51:22;101848.88;;;7.89;61.69
37832;BME280;23671;38.090;-122.570;2023-03-17T13:53:56;101866.47;;;7.88;61.63
37832;BME280;23671;38.090;-122.570;2023-03-17T13:56:26;101863.97;;;7.85;61.90